createdAt,value
2023-02-19T05:46:08.792Z,100207.17
2023-02-19T05:47:10.633Z,100204.62
2023-02-19T05:48:12.448Z,100206.41
2023-02-19T05:49:14.267Z,100204.68
2023-02-19T05:50:16.582Z,100201.30
2023-02-19T05:51:18.413Z,100197.85
2023-02-19T05:52:20.421Z,100201.33
2023-02-19T05:53:22.192Z,100199.63
2023-02-19T05:54:23.991Z,100192.73
2023-02-19T05:55:25.803Z,100188.50
2023-02-19T05:56:27.661Z,100200.59
2023-02-19T05:57:29.471Z,100200.59
2023-02-19T05:58:31.290Z,100191.97
2023-02-19T05:59:33.113Z,100191.97
2023-02-19T06:00:35.135Z,100189.38
2023-02-19T06:01:36.951Z,100185.97
2023-02-19T06:02:39.915Z,100189.41
2023-02-19T06:03:41.729Z,100181.69
2023-02-19T06:04:43.519Z,100187.75
2023-02-19T06:05:45.320Z,100185.19
2023-02-19T06:06:47.116Z,100190.39
2023-02-19T06:07:50.747Z,100182.64
2023-02-19T06:08:52.609Z,100191.25
2023-02-19T06:09:54.432Z,100193.03
2023-02-19T06:10:56.437Z,100187.02
2023-02-19T06:11:58.349Z,100191.39
2023-02-19T06:13:00.296Z,100187.08
2023-02-19T06:14:02.097Z,100190.59
2023-02-19T06:15:03.905Z,100194.03
2023-02-19T06:16:05.885Z,100189.72
2023-02-19T06:17:07.769Z,100186.30
2023-02-19T06:18:09.626Z,100189.78
2023-02-19T06:19:11.424Z,100183.75
2023-02-19T06:20:13.458Z,100188.91
2023-02-19T06:21:15.244Z,100185.50
2023-02-19T06:22:17.041Z,100186.36
2023-02-19T06:23:18.895Z,100181.22
2023-02-19T06:24:20.729Z,100191.58
2023-02-19T06:25:22.527Z,100189.00
2023-02-19T06:26:24.326Z,100180.38
2023-02-19T06:27:26.252Z,100181.24
2023-02-19T06:28:28.140Z,100181.27
2023-02-19T06:29:30.028Z,100177.85
2023-02-19T06:30:32.288Z,100176.98
2023-02-19T06:31:34.261Z,100190.80
2023-02-19T06:32:36.115Z,100187.39
2023-02-19T06:33:37.945Z,100188.25
2023-02-19T06:34:39.856Z,100190.86
2023-02-19T06:35:41.656Z,100190.02
2023-02-19T06:36:43.468Z,100189.16
2023-02-19T06:37:45.269Z,100189.16
2023-02-19T06:38:47.228Z,100188.33
2023-02-19T06:39:49.099Z,100191.74
2023-02-19T06:40:50.914Z,100191.74
2023-02-19T06:41:52.935Z,100197.86
2023-02-19T06:42:54.741Z,100197.89
2023-02-19T06:43:56.581Z,100203.06
2023-02-19T06:44:58.397Z,100200.50
2023-02-19T06:46:00.212Z,100200.50
2023-02-19T06:47:02.038Z,100197.02
2023-02-19T06:48:03.870Z,100198.77
2023-02-19T06:49:05.781Z,100202.20
2023-02-19T06:50:07.826Z,100204.78
2023-02-19T06:51:09.982Z,100211.73
2023-02-19T06:52:11.957Z,100207.48
2023-02-19T06:53:13.774Z,100215.20
2023-02-19T06:54:15.624Z,100216.91
2023-02-19T06:55:17.459Z,100216.87
2023-02-19T06:56:19.582Z,100210.90
2023-02-19T06:57:21.378Z,100205.73
2023-02-19T06:58:23.900Z,100207.45
2023-02-19T06:59:25.751Z,100210.90
2023-02-19T07:00:27.551Z,100211.78
2023-02-19T07:01:29.350Z,100207.53
2023-02-19T07:02:31.173Z,100205.80
2023-02-19T07:03:32.962Z,100203.27
2023-02-19T07:04:34.819Z,100199.84
2023-02-19T07:05:36.661Z,100199.80
2023-02-19T07:06:38.547Z,100209.30
2023-02-19T07:07:40.345Z,100217.95
2023-02-19T07:08:42.148Z,100208.47
2023-02-19T07:09:44.001Z,100210.25
2023-02-19T07:10:45.806Z,100209.41
2023-02-19T07:11:47.604Z,100204.23
2023-02-19T07:12:49.415Z,100196.50
2023-02-19T07:13:51.199Z,100194.80
2023-02-19T07:14:53.080Z,100201.72
2023-02-19T07:15:54.914Z,100206.98
2023-02-19T07:16:56.953Z,100211.31
2023-02-19T07:17:58.740Z,100211.33
2023-02-19T07:19:00.585Z,100216.56
2023-02-19T07:20:02.420Z,100201.95
2023-02-19T07:21:04.225Z,100200.22
2023-02-19T07:22:06.041Z,100214.05
2023-02-19T07:23:07.869Z,100211.43
2023-02-19T07:24:09.711Z,100199.39
2023-02-19T07:25:11.573Z,100208.03
2023-02-19T07:26:13.676Z,100205.49
2023-02-19T07:27:15.505Z,100200.34
2023-02-19T07:28:17.305Z,100202.95
2023-02-19T07:29:19.100Z,100206.45
2023-02-19T07:30:21.196Z,100200.47
2023-02-19T07:31:23.008Z,100197.93
2023-02-19T07:32:24.862Z,100198.86
2023-02-19T07:33:26.658Z,100202.36
2023-02-19T07:34:28.466Z,100205.85
2023-02-19T07:35:30.336Z,100207.63
2023-02-19T07:36:32.130Z,100210.22
2023-02-19T07:37:33.963Z,100207.63
2023-02-19T07:38:35.758Z,100209.38
2023-02-19T07:39:37.602Z,100205.98
2023-02-19T07:40:39.464Z,100212.03
2023-02-19T07:41:41.270Z,100207.73
2023-02-19T07:42:43.067Z,100206.04
2023-02-19T07:43:44.899Z,100206.92
2023-02-19T07:44:46.751Z,100206.11
2023-02-19T07:45:48.651Z,100213.00
2023-02-19T07:46:50.604Z,100225.13
2023-02-19T07:47:52.418Z,100221.70
2023-02-19T07:48:54.241Z,100214.78
2023-02-19T07:49:56.052Z,100219.09
2023-02-19T07:50:59.712Z,100218.25
2023-02-19T07:52:01.523Z,100220.86
2023-02-19T07:53:03.335Z,100226.97
2023-02-19T07:54:05.149Z,100225.24
2023-02-19T07:55:06.956Z,100228.72
2023-02-19T07:56:09.003Z,100222.70
2023-02-19T07:57:10.839Z,100222.72
2023-02-19T07:58:12.730Z,100217.56
2023-02-19T07:59:14.510Z,100215.84
2023-02-19T08:00:16.559Z,100224.45
2023-02-19T08:01:18.501Z,100217.54
2023-02-19T08:02:20.340Z,100217.54
2023-02-19T08:03:22.229Z,100219.29
2023-02-19T08:04:24.068Z,100222.76
2023-02-19T08:05:25.929Z,100221.06
2023-02-19T08:06:27.892Z,100219.35
2023-02-19T08:07:29.719Z,100228.00
2023-02-19T08:08:31.539Z,100214.21
2023-02-19T08:09:33.342Z,100209.89
2023-02-19T08:10:35.377Z,100210.80
2023-02-19T08:11:37.233Z,100212.52
2023-02-19T08:12:39.046Z,100211.68
2023-02-19T08:13:40.855Z,100219.45
2023-02-19T08:14:42.663Z,100216.86
2023-02-19T08:15:44.585Z,100218.63
2023-02-19T08:16:46.455Z,100211.72
2023-02-19T08:17:48.317Z,100221.22
2023-02-19T08:18:50.190Z,100214.30
2023-02-19T08:19:51.981Z,100224.63
2023-02-19T08:20:53.810Z,100221.22
2023-02-19T08:21:55.650Z,100219.49
2023-02-19T08:22:57.457Z,100220.37
2023-02-19T08:23:59.273Z,100210.88
2023-02-19T08:25:01.160Z,100215.19
2023-02-19T08:26:03.156Z,100213.47
2023-02-19T08:27:05.000Z,100217.78
2023-02-19T08:28:06.824Z,100217.80
2023-02-19T08:29:08.670Z,100217.85
2023-02-19T08:30:10.831Z,100216.98
2023-02-19T08:31:12.960Z,100218.73
2023-02-19T08:32:15.181Z,100217.02
2023-02-19T08:33:17.059Z,100215.34
2023-02-19T08:34:18.872Z,100221.36
2023-02-19T08:35:20.683Z,100232.60
2023-02-19T08:36:22.693Z,100229.17
2023-02-19T08:37:24.635Z,100226.60
2023-02-19T08:38:26.433Z,100238.73
2023-02-19T08:39:28.253Z,100236.15
2023-02-19T08:40:30.085Z,100237.86
2023-02-19T08:41:31.911Z,100236.19
2023-02-19T08:42:33.754Z,100243.95
2023-02-19T08:43:35.576Z,100238.78
2023-02-19T08:44:37.371Z,100237.88
2023-02-19T08:45:39.192Z,100238.78
2023-02-19T08:46:40.995Z,100237.92
2023-02-19T08:47:42.848Z,100244.86
2023-02-19T08:48:44.671Z,100238.81
2023-02-19T08:49:46.466Z,100243.13
2023-02-19T08:50:48.284Z,100241.42
2023-02-19T08:51:50.098Z,100244.02
2023-02-19T08:52:51.943Z,100237.94
2023-02-19T08:53:53.959Z,100237.91
2023-02-19T08:54:55.757Z,100236.20
2023-02-19T08:55:57.710Z,100234.47
2023-02-19T08:56:59.674Z,100232.73
2023-02-19T08:58:01.736Z,100233.65
2023-02-19T08:59:03.540Z,100238.83
2023-02-19T09:00:05.997Z,100233.63
2023-02-19T09:01:07.841Z,100230.19
2023-02-19T09:02:09.685Z,100235.42
2023-02-19T09:03:11.611Z,100232.84
2023-02-19T09:04:13.456Z,100236.30
2023-02-19T09:05:15.219Z,100244.95
2023-02-19T09:06:18.833Z,100236.35
2023-02-19T09:07:20.730Z,100239.80
2023-02-19T09:08:22.624Z,100236.37
2023-02-19T09:09:24.400Z,100245.91
2023-02-19T09:10:26.199Z,100242.45
2023-02-19T09:11:28.035Z,100245.04
2023-02-19T09:12:29.848Z,100238.14
2023-02-19T09:13:31.734Z,100242.44
2023-02-19T09:14:33.528Z,100243.31
2023-02-19T09:15:35.391Z,100241.59
2023-02-19T09:16:37.263Z,100242.45
2023-02-19T09:17:39.066Z,100244.20
2023-02-19T09:18:40.913Z,100240.77
2023-02-19T09:19:42.724Z,100236.46
2023-02-19T09:20:44.637Z,100243.39
2023-02-19T09:21:46.458Z,100237.34
2023-02-19T09:22:48.266Z,100239.91
2023-02-19T09:23:50.105Z,100241.68
2023-02-19T09:24:51.940Z,100240.82
2023-02-19T09:25:53.785Z,100247.70
2023-02-19T09:26:55.597Z,100247.70
2023-02-19T09:27:57.408Z,100244.27
2023-02-19T09:28:59.264Z,100247.72
2023-02-19T09:30:01.165Z,100248.63
2023-02-19T09:31:02.976Z,100246.90
2023-02-19T09:32:04.806Z,100250.39
2023-02-19T09:33:06.684Z,100241.70
2023-02-19T09:34:08.523Z,100251.19
2023-02-19T09:35:10.348Z,100251.19
2023-02-19T09:36:12.766Z,100245.11
2023-02-19T09:37:14.576Z,100241.68
2023-02-19T09:38:16.375Z,100246.88
2023-02-19T09:39:18.229Z,100245.15
2023-02-19T09:40:20.171Z,100251.28
2023-02-19T09:41:21.984Z,100243.48
2023-02-19T09:42:23.800Z,100233.95
2023-02-19T09:43:25.627Z,100246.11
2023-02-19T09:44:27.567Z,100245.25
2023-02-19T09:45:29.391Z,100246.09
2023-02-19T09:46:31.307Z,100237.45
2023-02-19T09:47:33.201Z,100228.13
2023-02-19T09:48:35.028Z,100236.52
2023-02-19T09:49:36.968Z,100225.77
2023-02-19T09:50:38.787Z,100219.11
2023-02-19T09:51:40.576Z,100207.02
2023-02-19T09:52:42.452Z,100204.36
2023-02-19T09:53:44.289Z,100202.41
2023-02-19T09:54:46.119Z,100206.52
2023-02-19T09:55:47.924Z,100203.58
2023-02-19T09:56:49.839Z,100188.40
2023-02-19T09:57:51.643Z,100193.30
2023-02-19T09:58:53.442Z,100183.28
2023-02-19T09:59:55.347Z,100182.92
2023-02-19T10:00:57.252Z,100185.14
2023-02-19T10:01:59.071Z,100176.02
2023-02-19T10:03:00.859Z,100185.27
2023-02-19T10:04:02.668Z,100181.48
2023-02-19T10:05:04.522Z,100183.79
2023-02-19T10:06:08.210Z,100184.44
2023-02-19T10:07:10.238Z,100184.19
2023-02-19T10:08:12.045Z,100181.30
2023-02-19T10:09:13.869Z,100181.05
2023-02-19T10:10:16.017Z,100189.57
2023-02-19T10:11:17.798Z,100188.55
2023-02-19T10:12:19.609Z,100184.87
2023-02-19T10:13:21.392Z,100185.61
2023-02-19T10:14:23.205Z,100185.41
2023-02-19T10:15:25.049Z,100179.93
2023-02-19T10:16:26.946Z,100184.96
2023-02-19T10:17:28.740Z,100182.19
2023-02-19T10:18:30.552Z,100177.81
2023-02-19T10:19:32.349Z,100179.45
2023-02-19T10:20:34.383Z,100176.70
2023-02-19T10:21:36.179Z,100178.36
2023-02-19T10:22:38.024Z,100172.33
2023-02-19T10:23:39.794Z,100176.58
2023-02-19T10:24:41.586Z,100168.50
2023-02-19T10:25:43.433Z,100163.91
2023-02-19T10:26:45.332Z,100162.84
2023-02-19T10:27:47.139Z,100169.80
2023-02-19T10:28:48.948Z,100161.88
2023-02-19T10:29:50.756Z,100158.28
2023-02-19T10:30:52.755Z,100157.39
2023-02-19T10:31:54.576Z,100160.87
2023-02-19T10:32:56.398Z,100152.00
2023-02-19T10:33:58.201Z,100149.33
2023-02-19T10:34:59.988Z,100151.96
2023-02-19T10:36:01.846Z,100139.74
2023-02-19T10:37:03.647Z,100145.85
2023-02-19T10:38:05.453Z,100152.80
2023-02-19T10:39:07.240Z,100143.05
2023-02-19T10:40:09.544Z,100150.77
2023-02-19T10:41:11.857Z,100147.97
2023-02-19T10:42:13.827Z,100149.57
2023-02-19T10:43:15.699Z,100148.55
2023-02-19T10:44:17.483Z,100152.03
2023-02-19T10:45:19.305Z,100152.84
2023-02-19T10:46:21.400Z,100148.41
2023-02-19T10:47:23.176Z,100159.70
2023-02-19T10:48:24.984Z,100160.45
2023-02-19T10:49:26.793Z,100168.34
2023-02-19T10:50:28.756Z,100166.61
2023-02-19T10:51:30.686Z,100169.20
2023-02-19T10:52:32.505Z,100166.56
2023-02-19T10:53:34.344Z,100169.11
2023-02-19T10:54:36.258Z,100164.70
2023-02-19T10:55:38.257Z,100163.84
2023-02-19T10:56:40.231Z,100165.72
2023-02-19T10:57:42.030Z,100162.33
2023-02-19T10:58:43.845Z,100159.88
2023-02-19T10:59:45.671Z,100166.20
2023-02-19T11:00:47.489Z,100161.04
2023-02-19T11:01:50.168Z,100172.50
2023-02-19T11:02:51.976Z,100167.23
2023-02-19T11:03:53.805Z,100168.94
2023-02-19T11:04:55.574Z,100168.94
2023-02-19T11:05:57.370Z,100180.34
2023-02-19T11:06:59.213Z,100180.34
2023-02-19T11:08:01.065Z,100179.50
2023-02-19T11:09:02.888Z,100185.61
2023-02-19T11:10:05.016Z,100184.84
2023-02-19T11:11:06.834Z,100187.16
2023-02-19T11:12:09.705Z,100187.98
2023-02-19T11:13:11.624Z,100194.88
2023-02-19T11:14:13.451Z,100186.91
2023-02-19T11:15:15.280Z,100191.11
2023-02-19T11:16:19.004Z,100201.27
2023-02-19T11:17:20.957Z,100193.94
2023-02-19T11:18:22.766Z,100197.88
2023-02-19T11:19:24.574Z,100199.13
2023-02-19T11:20:26.572Z,100204.74
2023-02-19T11:21:28.389Z,100201.59
2023-02-19T11:22:30.224Z,100200.09
2023-02-19T11:23:32.067Z,100195.10
2023-02-19T11:24:33.905Z,100197.91
2023-02-19T11:25:35.687Z,100193.77
2023-02-19T11:26:37.592Z,100198.30
2023-02-19T11:27:39.701Z,100196.68
2023-02-19T11:28:41.510Z,100200.31
2023-02-19T11:29:43.329Z,100197.77
2023-02-19T11:30:45.166Z,100194.41
2023-02-19T11:31:47.076Z,100196.20
2023-02-19T11:32:49.038Z,100188.45
2023-02-19T11:33:50.860Z,100185.05
2023-02-19T11:34:52.664Z,100193.78
2023-02-19T11:35:54.485Z,100192.95
2023-02-19T11:36:56.283Z,100191.27
2023-02-19T11:37:58.147Z,100187.86
2023-02-19T11:38:59.980Z,100183.55
2023-02-19T11:40:01.774Z,100181.84
2023-02-19T11:41:03.585Z,100187.90
2023-02-19T11:42:05.400Z,100183.56
2023-02-19T11:43:07.275Z,100181.86
2023-02-19T11:44:09.091Z,100193.14
2023-02-19T11:45:10.895Z,100192.29
2023-02-19T11:46:14.459Z,100194.00
2023-02-19T11:47:16.240Z,100186.20
2023-02-19T11:48:18.100Z,100190.55
2023-02-19T11:49:19.921Z,100190.52
2023-02-19T11:50:21.900Z,100197.47
2023-02-19T11:51:23.726Z,100199.20
2023-02-19T11:52:25.533Z,100189.65
2023-02-19T11:53:27.408Z,100193.95
2023-02-19T11:54:29.195Z,100194.81
2023-02-19T11:55:31.009Z,100193.05
2023-02-19T11:56:33.048Z,100198.25
2023-02-19T11:57:34.857Z,100197.35
2023-02-19T11:58:36.738Z,100199.95
2023-02-19T11:59:38.547Z,100205.14
2023-02-19T12:00:40.472Z,100204.23
2023-02-19T12:01:42.304Z,100203.33
2023-02-19T12:02:44.088Z,100202.47
2023-02-19T12:03:46.007Z,100205.91
2023-02-19T12:04:47.846Z,100205.05
2023-02-19T12:05:49.652Z,100203.28
2023-02-19T12:06:51.451Z,100211.96
2023-02-19T12:07:53.279Z,100206.75
2023-02-19T12:08:55.111Z,100206.70
2023-02-19T12:09:56.929Z,100211.03
2023-02-19T12:10:58.920Z,100212.77
2023-02-19T12:12:00.737Z,100215.36
2023-02-19T12:13:02.570Z,100220.55
2023-02-19T12:14:04.443Z,100215.35
2023-02-19T12:15:06.234Z,100217.06
2023-02-19T12:16:08.615Z,100222.25
2023-02-19T12:17:10.374Z,100216.18
2023-02-19T12:18:12.184Z,100223.10
2023-02-19T12:19:14.042Z,100223.09
2023-02-19T12:20:15.950Z,100214.39
2023-02-19T12:21:17.759Z,100220.43
2023-02-19T12:22:19.555Z,100224.75
2023-02-19T12:23:21.365Z,100222.97
2023-02-19T12:24:23.229Z,100225.55
2023-02-19T12:25:25.062Z,100228.15
2023-02-19T12:26:26.867Z,100224.70
2023-02-19T12:27:28.679Z,100225.55
2023-02-19T12:28:31.515Z,100229.88
2023-02-19T12:29:33.468Z,100218.62
2023-02-19T12:30:35.531Z,100217.72
2023-02-19T12:31:37.397Z,100221.16
2023-02-19T12:32:39.182Z,100212.51
2023-02-19T12:33:40.984Z,100218.55
2023-02-19T12:34:42.897Z,100218.55
2023-02-19T12:35:44.688Z,100208.14
2023-02-19T12:36:46.643Z,100204.67
2023-02-19T12:37:48.466Z,100205.53
2023-02-19T12:38:50.291Z,100215.89
2023-02-19T12:39:52.166Z,100217.63
2023-02-19T12:40:54.104Z,100217.61
2023-02-19T12:41:55.956Z,100209.81
2023-02-19T12:42:57.782Z,100207.20
2023-02-19T12:43:59.586Z,100204.61
2023-02-19T12:45:01.450Z,100206.37
2023-02-19T12:46:03.569Z,100210.67
2023-02-19T12:47:05.405Z,100219.34
2023-02-19T12:48:07.242Z,100219.34
2023-02-19T12:49:09.045Z,100227.98
2023-02-19T12:50:11.421Z,100228.82
2023-02-19T12:51:13.214Z,100217.58
2023-02-19T12:52:15.038Z,100221.87
2023-02-19T12:53:16.866Z,100233.13
2023-02-19T12:54:18.674Z,100231.38
2023-02-19T12:55:20.530Z,100227.05
2023-02-19T12:56:22.541Z,100233.13
2023-02-19T12:57:24.373Z,100229.64
2023-02-19T12:58:26.271Z,100226.19
2023-02-19T12:59:28.077Z,100232.25
2023-02-19T13:00:29.983Z,100233.99
2023-02-19T13:01:31.829Z,100231.39
2023-02-19T13:02:33.795Z,100222.75
2023-02-19T13:03:35.622Z,100229.66
2023-02-19T13:04:37.449Z,100232.25
2023-02-19T13:05:39.328Z,100224.47
2023-02-19T13:06:41.150Z,100232.25
2023-02-19T13:07:42.960Z,100225.36
2023-02-19T13:08:57.847Z,100230.53
2023-02-19T13:09:48.421Z,100231.39
2023-02-19T13:10:52.945Z,100233.14
2023-02-19T13:11:54.836Z,100235.73
2023-02-19T13:12:56.689Z,100236.59
2023-02-19T13:13:58.531Z,100232.30
2023-02-19T13:15:00.354Z,100234.02
2023-02-19T13:16:02.271Z,100233.99
2023-02-19T13:17:04.152Z,100233.16
2023-02-19T13:18:06.023Z,100232.30
2023-02-19T13:19:07.840Z,100224.45
2023-02-19T13:20:09.893Z,100224.45
2023-02-19T13:21:12.027Z,100233.14
2023-02-19T13:22:14.142Z,100231.39
2023-02-19T13:23:15.951Z,100227.94
2023-02-19T13:24:17.755Z,100228.79
2023-02-19T13:25:19.619Z,100231.38
2023-02-19T13:26:22.094Z,100233.95
2023-02-19T13:27:23.913Z,100232.22
2023-02-19T13:28:25.738Z,100246.92
2023-02-19T13:29:27.540Z,100243.47
2023-02-19T13:30:29.424Z,100245.17
2023-02-19T13:31:31.424Z,100245.16
2023-02-19T13:32:33.314Z,100252.96
2023-02-19T13:33:35.260Z,100257.30
2023-02-19T13:34:37.065Z,100255.55
2023-02-19T13:35:38.865Z,100253.86
2023-02-19T13:36:40.827Z,100252.96
2023-02-19T13:37:42.638Z,100248.65
2023-02-19T13:38:44.457Z,100249.51
2023-02-19T13:39:46.280Z,100249.51
2023-02-19T13:40:48.174Z,100256.45
2023-02-19T13:41:50.048Z,100249.51
2023-02-19T13:42:51.852Z,100248.65
2023-02-19T13:43:53.650Z,100246.06
2023-02-19T13:44:57.945Z,100246.06
2023-02-19T13:45:59.170Z,100253.86
2023-02-19T13:47:01.790Z,100246.92
2023-02-19T13:48:03.586Z,100251.27
2023-02-19T13:49:05.395Z,100246.06
2023-02-19T13:50:07.554Z,100251.26
2023-02-19T13:51:10.128Z,100253.84
2023-02-19T13:52:12.211Z,100249.50
2023-02-19T13:53:14.024Z,100256.42
2023-02-19T13:54:15.841Z,100252.08
2023-02-19T13:55:17.650Z,100247.75
2023-02-19T13:56:20.374Z,100249.50
2023-02-19T13:57:22.314Z,100245.16
2023-02-19T13:58:24.133Z,100230.44
2023-02-19T13:59:25.964Z,100230.44
2023-02-19T14:00:27.785Z,100236.52
2023-02-19T14:01:29.638Z,100232.17
2023-02-19T14:02:31.503Z,100228.72
2023-02-19T14:03:33.280Z,100237.36
2023-02-19T14:04:37.698Z,100234.77
2023-02-19T14:05:39.567Z,100226.98
2023-02-19T14:06:41.364Z,100226.97
2023-02-19T14:07:43.221Z,100231.30
2023-02-19T14:08:45.070Z,100232.14
2023-02-19T14:09:46.879Z,100224.34
2023-02-19T14:10:48.688Z,100224.34
2023-02-19T14:11:50.542Z,100234.73
2023-02-19T14:12:52.404Z,100230.42
2023-02-19T14:13:54.209Z,100229.53
2023-02-19T14:14:56.049Z,100226.92
2023-02-19T14:15:57.947Z,100226.92
2023-02-19T14:17:00.101Z,100223.47
2023-02-19T14:18:01.959Z,100226.05
2023-02-19T14:19:03.774Z,100222.59
2023-02-19T14:20:05.738Z,100222.59
2023-02-19T14:21:07.503Z,100225.14
2023-02-19T14:22:09.296Z,100219.09
2023-02-19T14:23:11.188Z,100223.42
2023-02-19T14:24:13.039Z,100219.93
2023-02-19T14:25:14.840Z,100217.33
2023-02-19T14:26:17.151Z,100213.02
2023-02-19T14:27:18.966Z,100219.91
2023-02-19T14:28:20.839Z,100227.70
2023-02-19T14:29:22.630Z,100238.06
2023-02-19T14:30:24.677Z,100233.77
2023-02-19T14:31:26.576Z,100233.76
2023-02-19T14:32:28.455Z,100236.34
2023-02-19T14:33:30.319Z,100235.45
2023-02-19T14:34:32.117Z,100238.05
2023-02-19T14:35:33.912Z,100234.59
2023-02-19T14:36:35.738Z,100235.45
2023-02-19T14:37:37.544Z,100234.59
2023-02-19T14:38:39.441Z,100231.13
2023-02-19T14:39:41.227Z,100226.79
2023-02-19T14:40:43.254Z,100225.04
2023-02-19T14:41:45.053Z,100218.98
2023-02-19T14:42:46.853Z,100219.84
2023-02-19T14:43:48.694Z,100219.83
2023-02-19T14:44:50.503Z,100225.00
2023-02-19T14:45:52.304Z,100218.94
2023-02-19T14:46:54.134Z,100218.92
2023-02-19T14:47:55.936Z,100224.97
2023-02-19T14:48:57.786Z,100218.88
2023-02-19T14:49:59.682Z,100220.56
2023-02-19T14:51:01.965Z,100216.25
2023-02-19T14:52:03.785Z,100215.34
2023-02-19T14:53:05.653Z,100211.88
2023-02-19T14:54:07.499Z,100211.86
2023-02-19T14:55:09.312Z,100210.12
2023-02-19T14:56:11.632Z,100214.45
2023-02-19T14:57:13.444Z,100216.17
2023-02-19T14:58:15.242Z,100215.26
2023-02-19T14:59:17.127Z,100222.19
2023-02-19T15:00:20.029Z,100223.91
2023-02-19T15:01:21.852Z,100214.38
2023-02-19T15:02:23.636Z,100221.30
2023-02-19T15:03:25.455Z,100222.14
2023-02-19T15:04:27.569Z,100217.80
2023-02-19T15:05:29.339Z,100218.69
2023-02-19T15:06:31.354Z,100220.39
2023-02-19T15:07:33.216Z,100228.16
2023-02-19T15:08:35.642Z,100228.14
2023-02-19T15:09:37.483Z,100229.03
2023-02-19T15:10:39.301Z,100230.72
2023-02-19T15:11:41.089Z,100235.03
2023-02-19T15:12:42.946Z,100225.50
2023-02-19T15:13:44.724Z,100233.27
2023-02-19T15:14:46.579Z,100228.92
2023-02-19T15:15:48.403Z,100230.64
2023-02-19T15:16:50.331Z,100236.66
2023-02-19T15:17:52.146Z,100241.84
2023-02-19T15:18:53.943Z,100246.14
2023-02-19T15:19:55.810Z,100251.31
2023-02-19T15:20:57.818Z,100248.70
2023-02-19T15:21:59.676Z,100249.55
2023-02-19T15:23:01.512Z,100241.75
2023-02-19T15:24:03.328Z,100240.02
2023-02-19T15:25:05.184Z,100235.67
2023-02-19T15:26:07.069Z,100229.58
2023-02-19T15:27:08.881Z,100229.58
2023-02-19T15:28:10.696Z,100234.73
2023-02-19T15:29:12.520Z,100227.80
2023-02-19T15:30:14.898Z,100233.83
2023-02-19T15:31:16.917Z,100236.39
2023-02-19T15:32:18.726Z,100239.82
2023-02-19T15:33:20.490Z,100244.98
2023-02-19T15:34:22.303Z,100242.38
2023-02-19T15:35:24.163Z,100244.11
2023-02-19T15:36:25.978Z,100244.95
2023-02-19T15:37:27.786Z,100245.83
2023-02-19T15:38:29.570Z,100249.27
2023-02-19T15:39:31.580Z,100250.12
2023-02-19T15:40:33.438Z,100254.44
2023-02-19T15:41:35.257Z,100250.97
2023-02-19T15:42:37.058Z,100250.08
2023-02-19T15:43:38.868Z,100245.72
2023-02-19T15:44:40.692Z,100245.67
2023-02-19T15:45:42.529Z,100243.95
2023-02-19T15:46:44.591Z,100251.73
2023-02-19T15:47:46.486Z,100248.23
2023-02-19T15:48:48.282Z,100244.78
2023-02-19T15:49:50.082Z,100244.76
2023-02-19T15:50:51.942Z,100247.35
2023-02-19T15:51:53.798Z,100241.29
2023-02-19T15:52:55.890Z,100242.12
2023-02-19T15:53:58.509Z,100240.37
2023-02-19T15:55:00.356Z,100242.11
2023-02-19T15:56:02.219Z,100249.86
2023-02-19T15:57:04.433Z,100250.70
2023-02-19T15:58:06.235Z,100255.86
2023-02-19T15:59:08.073Z,100248.07
2023-02-19T16:00:10.106Z,100252.39
2023-02-19T16:01:12.158Z,100249.78
2023-02-19T16:02:14.176Z,100246.28
2023-02-19T16:03:15.991Z,100254.92
2023-02-19T16:04:17.786Z,100252.31
2023-02-19T16:05:19.618Z,100249.70
2023-02-19T16:06:21.794Z,100247.95
2023-02-19T16:07:23.605Z,100250.53
2023-02-19T16:08:25.404Z,100246.17
2023-02-19T16:09:27.321Z,100245.31
2023-02-19T16:10:29.111Z,100247.91
2023-02-19T16:11:30.960Z,100256.52
2023-02-19T16:12:32.795Z,100253.92
2023-02-19T16:13:34.581Z,100251.31
2023-02-19T16:14:36.420Z,100247.88
2023-02-19T16:15:38.222Z,100250.50
2023-02-19T16:16:40.298Z,100250.48
2023-02-19T16:17:42.127Z,100250.48
2023-02-19T16:18:43.927Z,100250.45
2023-02-19T16:19:45.742Z,100256.47
2023-02-19T16:20:47.648Z,100260.80
2023-02-19T16:21:49.525Z,100259.04
2023-02-19T16:22:51.336Z,100254.75
2023-02-19T16:23:53.170Z,100260.77
2023-02-19T16:24:54.978Z,100259.91
2023-02-19T16:25:56.817Z,100257.32
2023-02-19T16:26:58.760Z,100259.02
2023-02-19T16:28:00.576Z,100265.93
2023-02-19T16:29:02.381Z,100266.78
2023-02-19T16:30:04.201Z,100262.48
2023-02-19T16:31:06.049Z,100271.11
2023-02-19T16:32:08.031Z,100263.31
2023-02-19T16:33:09.903Z,100268.50
2023-02-19T16:34:11.707Z,100275.41
2023-02-19T16:35:13.506Z,100279.70
2023-02-19T16:36:17.121Z,100275.39
2023-02-19T16:37:18.963Z,100276.25
2023-02-19T16:38:20.772Z,100277.97
2023-02-19T16:39:22.597Z,100274.49
2023-02-19T16:40:24.593Z,100268.45
2023-02-19T16:41:26.420Z,100273.63
2023-02-19T16:42:28.285Z,100274.47
2023-02-19T16:43:30.093Z,100271.02
2023-02-19T16:44:31.920Z,100270.11
2023-02-19T16:45:33.736Z,100275.30
2023-02-19T16:46:35.557Z,100273.59
2023-02-19T16:47:37.424Z,100275.28
2023-02-19T16:48:39.266Z,100265.80
2023-02-19T16:49:41.083Z,100280.46
2023-02-19T16:50:43.018Z,100274.41
2023-02-19T16:51:44.867Z,100280.44
2023-02-19T16:52:46.783Z,100277.84
2023-02-19T16:53:48.609Z,100283.03
2023-02-19T16:54:50.401Z,100282.17
2023-02-19T16:55:52.216Z,100275.23
2023-02-19T16:56:54.043Z,100283.00
2023-02-19T16:57:55.927Z,100276.97
2023-02-19T16:58:57.742Z,100281.29
2023-02-19T16:59:59.535Z,100276.11
2023-02-19T17:01:01.410Z,100276.11
2023-02-19T17:02:03.185Z,100276.95
2023-02-19T17:03:08.167Z,100268.31
2023-02-19T17:04:10.058Z,100271.74
2023-02-19T17:05:11.914Z,100272.60
2023-02-19T17:06:13.914Z,100274.33
2023-02-19T17:07:15.729Z,100277.78
2023-02-19T17:08:17.607Z,100270.02
2023-02-19T17:09:19.428Z,100274.33
2023-02-19T17:10:21.244Z,100274.33
2023-02-19T17:11:23.044Z,100271.74
2023-02-19T17:12:24.848Z,100280.38
2023-02-19T17:13:26.710Z,100280.34
2023-02-19T17:14:28.543Z,100282.94
2023-02-19T17:15:32.658Z,100291.59
2023-02-19T17:16:34.539Z,100294.16
2023-02-19T17:17:36.350Z,100297.59
2023-02-19T17:18:38.208Z,100300.16
2023-02-19T17:19:40.013Z,100293.20
2023-02-19T17:20:41.816Z,100298.36
2023-02-19T17:21:43.624Z,100305.27
2023-02-19T17:22:45.461Z,100294.86
2023-02-19T17:23:47.312Z,100306.97
2023-02-19T17:24:49.119Z,100300.03
2023-02-19T17:25:50.966Z,100302.63
2023-02-19T17:26:52.840Z,100303.45
2023-02-19T17:27:54.668Z,100306.02
2023-02-19T17:28:56.536Z,100295.66
2023-02-19T17:29:58.349Z,100287.87
2023-02-19T17:31:00.255Z,100293.03
2023-02-19T17:32:02.169Z,100299.05